TKJ487 LTAC-UUWW
Flight info
| Callsign | TKJ487 |
|---|---|
| Flight time | 2h 48m |
| Altitude | 37000 |
| Route | ILHAN UW71 CRM UW99 ODIRA/K0832F370 G476 ANAKA/K0837F360 G476 PATUM/K0841F370 G476 OLGIN/K0841F360 N156 BEDBA/K0843F370 N156 MASOL/K0859F360 N156 UBONA T323 OTPAD/K0787F270 T325 LEKDO LEKDO3A |
| Aircraft | A21N/M-SDE2E3FGHIRWXY/LB1 |
Departure
| Time | 2026-04-27 18:23 |
|---|---|
| Airport | Esenboğa International Airport (LTAC) |
Arrival
| Time | 2026-04-27 21:11 |
|---|---|
| Airport | Vnukovo International Airport (UUWW) |
| Time | Latitude | Longitude | Altitude | Speed | Heading |
|---|---|---|---|---|---|
| 2026-04-27 18:05 | 40.11558 | 32.99032 | 3139 ft | 0 kts | 138° |
| 2026-04-27 18:15 | 40.11569 | 32.99019 | 3139 ft | 4 kts | 140° |
| 2026-04-27 18:16 | 40.11590 | 32.98998 | 3139 ft | 4 kts | 145° |
| 2026-04-27 18:16 | 40.11613 | 32.98979 | 3139 ft | 4 kts | 152° |
| 2026-04-27 18:16 | 40.11624 | 32.98972 | 3139 ft | 1 kts | 153° |
| 2026-04-27 18:20 | 40.11620 | 32.98974 | 3139 ft | 2 kts | 154° |
| 2026-04-27 18:20 | 40.11601 | 32.98949 | 3139 ft | 7 kts | 292° |
| 2026-04-27 18:21 | 40.11647 | 32.98894 | 3139 ft | 11 kts | 304° |
| 2026-04-27 18:21 | 40.11707 | 32.98801 | 3139 ft | 16 kts | 308° |
| 2026-04-27 18:21 | 40.11779 | 32.98673 | 3139 ft | 19 kts | 306° |
| 2026-04-27 18:21 | 40.11865 | 32.98520 | 3141 ft | 11 kts | 307° |
| 2026-04-27 18:22 | 40.11927 | 32.98506 | 3141 ft | 12 kts | 33° |
| 2026-04-27 18:22 | 40.12094 | 32.98660 | 3142 ft | 65 kts | 36° |
| 2026-04-27 18:22 | 40.12672 | 32.99213 | 3141 ft | 137 kts | 36° |
| 2026-04-27 18:22 | 40.13543 | 33.00047 | 3224 ft | 171 kts | 36° |
| 2026-04-27 18:23 | 40.14523 | 33.00982 | 3742 ft | 175 kts | 36° |
| 2026-04-27 18:23 | 40.15493 | 33.01960 | 4379 ft | 180 kts | 40° |
| 2026-04-27 18:23 | 40.16481 | 33.03054 | 4845 ft | 192 kts | 39° |
| 2026-04-27 18:23 | 40.17553 | 33.04202 | 5286 ft | 206 kts | 39° |
| 2026-04-27 18:24 | 40.18706 | 33.05433 | 5749 ft | 223 kts | 39° |
| 2026-04-27 18:24 | 40.19954 | 33.06765 | 6212 ft | 239 kts | 39° |
| 2026-04-27 18:24 | 40.21259 | 33.08165 | 6897 ft | 246 kts | 40° |
| 2026-04-27 18:24 | 40.22388 | 33.09866 | 7574 ft | 254 kts | 58° |
| 2026-04-27 18:25 | 40.23213 | 33.11999 | 8068 ft | 270 kts | 64° |
| 2026-04-27 18:25 | 40.24014 | 33.14268 | 8701 ft | 278 kts | 64° |
| 2026-04-27 18:25 | 40.24843 | 33.16587 | 9416 ft | 284 kts | 64° |
| 2026-04-27 18:25 | 40.25690 | 33.18933 | 10122 ft | 287 kts | 63° |
| 2026-04-27 18:26 | 40.26576 | 33.21363 | 10521 ft | 305 kts | 63° |
| 2026-04-27 18:26 | 40.27521 | 33.23950 | 10813 ft | 325 kts | 63° |
| 2026-04-27 18:26 | 40.28525 | 33.26707 | 11081 ft | 345 kts | 63° |
| 2026-04-27 18:26 | 40.29591 | 33.29622 | 11330 ft | 364 kts | 63° |
| 2026-04-27 18:27 | 40.30712 | 33.32691 | 11581 ft | 382 kts | 63° |
| 2026-04-27 18:27 | 40.31886 | 33.35901 | 11823 ft | 398 kts | 63° |
| 2026-04-27 18:27 | 40.33084 | 33.39203 | 12268 ft | 404 kts | 63° |
| 2026-04-27 18:27 | 40.34299 | 33.42542 | 12791 ft | 407 kts | 63° |
| 2026-04-27 18:28 | 40.35511 | 33.45861 | 13334 ft | 410 kts | 63° |
| 2026-04-27 18:28 | 40.36740 | 33.49244 | 13874 ft | 413 kts | 63° |
| 2026-04-27 18:28 | 40.37998 | 33.52705 | 14381 ft | 416 kts | 63° |
| 2026-04-27 18:28 | 40.39222 | 33.56098 | 14885 ft | 419 kts | 63° |
| 2026-04-27 18:29 | 40.40462 | 33.59575 | 15452 ft | 422 kts | 64° |
| 2026-04-27 18:29 | 40.41716 | 33.63076 | 16022 ft | 425 kts | 63° |
| 2026-04-27 18:29 | 40.42983 | 33.66600 | 16563 ft | 429 kts | 63° |
| 2026-04-27 18:29 | 40.44238 | 33.70167 | 17094 ft | 432 kts | 66° |
| 2026-04-27 18:30 | 40.45247 | 33.73898 | 17606 ft | 436 kts | 70° |
| 2026-04-27 18:30 | 40.46198 | 33.77695 | 18120 ft | 439 kts | 71° |
| 2026-04-27 18:30 | 40.47147 | 33.81518 | 18603 ft | 442 kts | 71° |
| 2026-04-27 18:30 | 40.48101 | 33.85378 | 19051 ft | 446 kts | 71° |
| 2026-04-27 18:31 | 40.49058 | 33.89269 | 19496 ft | 449 kts | 71° |
| 2026-04-27 18:31 | 40.50026 | 33.93178 | 19929 ft | 452 kts | 70° |
| 2026-04-27 18:31 | 40.51141 | 33.97050 | 20352 ft | 455 kts | 67° |
| 2026-04-27 18:31 | 40.52337 | 34.00916 | 20761 ft | 458 kts | 66° |
| 2026-04-27 18:32 | 40.53543 | 34.04802 | 21181 ft | 461 kts | 66° |
| 2026-04-27 18:32 | 40.54750 | 34.08720 | 21632 ft | 464 kts | 67° |
| 2026-04-27 18:32 | 40.55966 | 34.12672 | 22043 ft | 468 kts | 67° |
| 2026-04-27 18:32 | 40.57184 | 34.16653 | 22433 ft | 471 kts | 66° |
| 2026-04-27 18:33 | 40.58417 | 34.20658 | 22815 ft | 474 kts | 67° |
| 2026-04-27 18:33 | 40.59657 | 34.24689 | 23171 ft | 477 kts | 67° |
| 2026-04-27 18:33 | 40.60897 | 34.28753 | 23515 ft | 480 kts | 67° |
| 2026-04-27 18:33 | 40.62146 | 34.32840 | 23864 ft | 483 kts | 67° |
| 2026-04-27 18:34 | 40.63395 | 34.36951 | 24305 ft | 483 kts | 67° |
| 2026-04-27 18:34 | 40.64640 | 34.41053 | 24796 ft | 482 kts | 67° |
| 2026-04-27 18:34 | 40.65886 | 34.45150 | 25252 ft | 482 kts | 67° |
| 2026-04-27 18:34 | 40.67131 | 34.49242 | 25722 ft | 481 kts | 67° |
| 2026-04-27 18:35 | 40.68377 | 34.53329 | 26153 ft | 481 kts | 67° |
| 2026-04-27 18:35 | 40.69615 | 34.57418 | 26601 ft | 480 kts | 67° |
| 2026-04-27 18:35 | 40.70848 | 34.61502 | 27041 ft | 479 kts | 67° |
| 2026-04-27 18:35 | 40.72077 | 34.65578 | 27436 ft | 479 kts | 68° |
| 2026-04-27 18:36 | 40.73304 | 34.69658 | 27853 ft | 478 kts | 67° |
| 2026-04-27 18:36 | 40.74532 | 34.73729 | 28258 ft | 477 kts | 68° |
| 2026-04-27 18:36 | 40.75746 | 34.77802 | 28667 ft | 477 kts | 68° |
| 2026-04-27 18:36 | 40.76961 | 34.81868 | 29033 ft | 477 kts | 68° |
| 2026-04-27 18:37 | 40.78154 | 34.85886 | 29431 ft | 476 kts | 68° |
| 2026-04-27 18:37 | 40.79352 | 34.89948 | 29813 ft | 475 kts | 68° |
| 2026-04-27 18:37 | 40.80544 | 34.94010 | 30178 ft | 474 kts | 68° |
| 2026-04-27 18:37 | 40.81737 | 34.98066 | 30517 ft | 473 kts | 68° |
| 2026-04-27 18:38 | 40.82927 | 35.02116 | 30833 ft | 473 kts | 68° |
| 2026-04-27 18:38 | 40.84109 | 35.06165 | 31146 ft | 472 kts | 68° |
| 2026-04-27 18:38 | 40.85293 | 35.10213 | 31456 ft | 472 kts | 68° |
| 2026-04-27 18:38 | 40.86470 | 35.14254 | 31731 ft | 472 kts | 68° |
| 2026-04-27 18:39 | 40.87644 | 35.18297 | 31991 ft | 472 kts | 68° |
| 2026-04-27 18:39 | 40.88820 | 35.22347 | 32286 ft | 471 kts | 68° |
| 2026-04-27 18:39 | 40.89976 | 35.26394 | 32575 ft | 470 kts | 69° |
| 2026-04-27 18:39 | 40.91130 | 35.30433 | 32826 ft | 470 kts | 68° |
| 2026-04-27 18:40 | 40.92289 | 35.34470 | 33085 ft | 469 kts | 68° |
| 2026-04-27 18:40 | 40.93452 | 35.38499 | 33309 ft | 469 kts | 68° |
| 2026-04-27 18:40 | 40.94615 | 35.42530 | 33527 ft | 469 kts | 68° |
| 2026-04-27 18:40 | 40.95777 | 35.46562 | 33748 ft | 468 kts | 68° |
| 2026-04-27 18:41 | 40.96933 | 35.50580 | 33972 ft | 468 kts | 68° |
| 2026-04-27 18:41 | 40.98087 | 35.54606 | 34175 ft | 468 kts | 68° |
| 2026-04-27 18:41 | 40.99236 | 35.58630 | 34368 ft | 467 kts | 68° |
| 2026-04-27 18:41 | 41.00385 | 35.62662 | 34527 ft | 468 kts | 68° |
| 2026-04-27 18:42 | 41.01537 | 35.66696 | 34698 ft | 469 kts | 68° |
| 2026-04-27 18:42 | 41.02302 | 35.69372 | 34814 ft | 469 kts | 68° |
| 2026-04-27 18:42 | 41.03878 | 35.74757 | 35037 ft | 469 kts | 67° |
| 2026-04-27 18:42 | 41.05076 | 35.78777 | 35183 ft | 469 kts | 67° |
| 2026-04-27 18:43 | 41.06267 | 35.82804 | 35317 ft | 470 kts | 67° |
| 2026-04-27 18:43 | 41.07457 | 35.86839 | 35461 ft | 470 kts | 68° |
| 2026-04-27 18:43 | 41.08623 | 35.90826 | 35604 ft | 470 kts | 68° |
| 2026-04-27 18:43 | 41.09802 | 35.94876 | 35743 ft | 471 kts | 68° |
| 2026-04-27 18:44 | 41.10956 | 35.98936 | 35883 ft | 471 kts | 68° |
| 2026-04-27 18:44 | 41.12099 | 36.03015 | 36008 ft | 471 kts | 69° |
| 2026-04-27 18:44 | 41.13236 | 36.07088 | 36149 ft | 471 kts | 69° |
| 2026-04-27 18:44 | 41.14379 | 36.11157 | 36247 ft | 471 kts | 68° |
| 2026-04-27 18:45 | 41.15529 | 36.15237 | 36362 ft | 473 kts | 68° |
| 2026-04-27 18:45 | 41.16671 | 36.19326 | 36487 ft | 472 kts | 69° |
| 2026-04-27 18:45 | 41.17807 | 36.23417 | 36616 ft | 472 kts | 69° |
| 2026-04-27 18:45 | 41.18936 | 36.27511 | 36756 ft | 472 kts | 69° |
| 2026-04-27 18:46 | 41.20063 | 36.31593 | 36908 ft | 471 kts | 69° |
| 2026-04-27 18:46 | 41.21192 | 36.35669 | 37076 ft | 470 kts | 69° |
| 2026-04-27 18:46 | 41.22322 | 36.39741 | 37206 ft | 469 kts | 69° |
| 2026-04-27 18:46 | 41.23447 | 36.43800 | 37329 ft | 468 kts | 68° |
| 2026-04-27 18:47 | 41.26676 | 36.51182 | 37341 ft | 461 kts | 45° |
| 2026-04-27 18:47 | 41.29076 | 36.53972 | 37327 ft | 457 kts | 31° |
| 2026-04-27 18:47 | 41.31847 | 36.55969 | 37323 ft | 453 kts | 18° |
| 2026-04-27 18:48 | 41.34857 | 36.57124 | 37324 ft | 448 kts | 7° |
| 2026-04-27 18:48 | 41.37921 | 36.57838 | 37325 ft | 447 kts | 6° |
| 2026-04-27 18:48 | 41.44052 | 36.59218 | 37319 ft | 447 kts | 7° |
| 2026-04-27 18:49 | 41.50179 | 36.60732 | 37320 ft | 447 kts | 7° |
| 2026-04-27 18:49 | 41.56314 | 36.62231 | 37320 ft | 448 kts | 7° |
| 2026-04-27 18:50 | 41.62440 | 36.63765 | 37320 ft | 449 kts | 7° |
| 2026-04-27 18:50 | 41.68575 | 36.65292 | 37321 ft | 448 kts | 7° |
| 2026-04-27 18:51 | 41.74705 | 36.66819 | 37321 ft | 449 kts | 7° |
| 2026-04-27 18:51 | 41.80793 | 36.68361 | 37321 ft | 449 kts | 7° |
| 2026-04-27 18:52 | 41.86920 | 36.69919 | 37320 ft | 449 kts | 7° |
| 2026-04-27 18:53 | 41.96114 | 36.72243 | 37321 ft | 448 kts | 7° |
| 2026-04-27 18:53 | 42.02234 | 36.73813 | 37320 ft | 448 kts | 7° |
| 2026-04-27 18:54 | 42.08378 | 36.75400 | 37312 ft | 450 kts | 6° |
| 2026-04-27 18:54 | 42.14527 | 36.76935 | 37310 ft | 450 kts | 6° |
| 2026-04-27 18:55 | 42.20679 | 36.78501 | 37310 ft | 449 kts | 6° |
| 2026-04-27 18:55 | 42.26829 | 36.80084 | 37310 ft | 449 kts | 6° |
| 2026-04-27 18:56 | 42.32984 | 36.81663 | 37311 ft | 451 kts | 6° |
| 2026-04-27 18:56 | 42.38099 | 36.82981 | 37310 ft | 450 kts | 6° |
| 2026-04-27 18:57 | 42.44262 | 36.84575 | 37310 ft | 451 kts | 6° |
| 2026-04-27 18:57 | 42.50417 | 36.86167 | 37310 ft | 451 kts | 6° |
| 2026-04-27 18:58 | 42.56582 | 36.87759 | 37302 ft | 450 kts | 6° |
| 2026-04-27 18:58 | 42.62741 | 36.89352 | 37300 ft | 450 kts | 6° |
| 2026-04-27 18:59 | 42.68902 | 36.90953 | 37300 ft | 451 kts | 6° |
| 2026-04-27 18:59 | 42.75082 | 36.92195 | 37301 ft | 448 kts | 2° |
| 2026-04-27 19:00 | 42.81274 | 36.93246 | 37300 ft | 448 kts | 2° |
| 2026-04-27 19:00 | 42.87464 | 36.94302 | 37300 ft | 448 kts | 2° |
| 2026-04-27 19:01 | 42.93653 | 36.95361 | 37294 ft | 448 kts | 2° |
| 2026-04-27 19:01 | 42.99849 | 36.96424 | 37290 ft | 449 kts | 2° |
| 2026-04-27 19:02 | 43.06042 | 36.97488 | 37292 ft | 448 kts | 2° |
| 2026-04-27 19:02 | 43.12236 | 36.98552 | 37292 ft | 449 kts | 1° |
| 2026-04-27 19:03 | 43.18426 | 36.99672 | 37289 ft | 449 kts | 2° |
| 2026-04-27 19:03 | 43.24622 | 37.00848 | 37284 ft | 449 kts | 2° |
| 2026-04-27 19:04 | 43.30824 | 37.02018 | 37280 ft | 449 kts | 2° |
| 2026-04-27 19:04 | 43.37018 | 37.03187 | 37281 ft | 450 kts | 2° |
| 2026-04-27 19:05 | 43.43211 | 37.03712 | 37281 ft | 445 kts | 355° |
| 2026-04-27 19:05 | 43.49365 | 37.04266 | 37280 ft | 448 kts | 0° |
| 2026-04-27 19:06 | 43.55573 | 37.05364 | 37276 ft | 449 kts | 2° |
| 2026-04-27 19:06 | 43.61770 | 37.06553 | 37270 ft | 450 kts | 2° |
| 2026-04-27 19:07 | 43.67984 | 37.07744 | 37270 ft | 451 kts | 2° |
| 2026-04-27 19:07 | 43.74201 | 37.08934 | 37271 ft | 451 kts | 2° |
| 2026-04-27 19:08 | 43.80417 | 37.10126 | 37270 ft | 451 kts | 2° |
| 2026-04-27 19:08 | 43.86629 | 37.11321 | 37271 ft | 451 kts | 2° |
| 2026-04-27 19:09 | 43.92847 | 37.12520 | 37271 ft | 452 kts | 1° |
| 2026-04-27 19:09 | 43.99064 | 37.13654 | 37267 ft | 449 kts | 359° |
| 2026-04-27 19:10 | 44.05287 | 37.14391 | 37261 ft | 449 kts | 358° |
| 2026-04-27 19:10 | 44.11518 | 37.15109 | 37262 ft | 449 kts | 358° |
| 2026-04-27 19:11 | 44.17752 | 37.16275 | 37261 ft | 453 kts | 2° |
| 2026-04-27 19:11 | 44.23980 | 37.17561 | 37260 ft | 452 kts | 2° |
| 2026-04-27 19:12 | 44.30213 | 37.18846 | 37260 ft | 452 kts | 2° |
| 2026-04-27 19:12 | 44.36442 | 37.20133 | 37260 ft | 453 kts | 2° |
| 2026-04-27 19:13 | 44.42674 | 37.21449 | 37260 ft | 453 kts | 2° |
| 2026-04-27 19:13 | 44.48906 | 37.22748 | 37260 ft | 453 kts | 2° |
| 2026-04-27 19:14 | 44.55058 | 37.24659 | 37260 ft | 461 kts | 9° |
| 2026-04-27 19:14 | 44.61258 | 37.26617 | 37260 ft | 454 kts | 3° |
| 2026-04-27 19:15 | 44.67491 | 37.27966 | 37260 ft | 452 kts | 1° |
| 2026-04-27 19:15 | 44.73726 | 37.29222 | 37261 ft | 453 kts | 1° |
| 2026-04-27 19:16 | 44.79953 | 37.30042 | 37261 ft | 447 kts | 355° |
| 2026-04-27 19:16 | 44.86183 | 37.30709 | 37259 ft | 452 kts | 0° |
| 2026-04-27 19:17 | 44.92417 | 37.32182 | 37259 ft | 459 kts | 9° |
| 2026-04-27 19:17 | 44.98609 | 37.34265 | 37261 ft | 454 kts | 4° |
| 2026-04-27 19:18 | 45.04819 | 37.34704 | 37256 ft | 442 kts | 348° |
| 2026-04-27 19:18 | 45.10910 | 37.33769 | 37260 ft | 442 kts | 349° |
| 2026-04-27 19:19 | 45.17083 | 37.33500 | 37260 ft | 445 kts | 353° |
| 2026-04-27 19:19 | 45.23291 | 37.33506 | 37261 ft | 446 kts | 353° |
| 2026-04-27 19:20 | 45.29498 | 37.33531 | 37260 ft | 445 kts | 353° |
| 2026-04-27 19:20 | 45.35704 | 37.33547 | 37260 ft | 446 kts | 353° |
| 2026-04-27 19:21 | 45.41924 | 37.33738 | 37260 ft | 449 kts | 356° |
| 2026-04-27 19:21 | 45.48166 | 37.34900 | 37261 ft | 452 kts | 0° |
| 2026-04-27 19:22 | 45.54410 | 37.35545 | 37260 ft | 449 kts | 355° |
| 2026-04-27 19:22 | 45.60641 | 37.35826 | 37261 ft | 448 kts | 355° |
| 2026-04-27 19:23 | 45.66867 | 37.36103 | 37260 ft | 448 kts | 355° |
| 2026-04-27 19:23 | 45.73093 | 37.36399 | 37252 ft | 448 kts | 355° |
| 2026-04-27 19:24 | 45.79327 | 37.36732 | 37250 ft | 448 kts | 356° |
| 2026-04-27 19:24 | 45.85556 | 37.37131 | 37251 ft | 449 kts | 356° |
| 2026-04-27 19:25 | 45.91794 | 37.37522 | 37250 ft | 449 kts | 356° |
| 2026-04-27 19:25 | 45.98033 | 37.37908 | 37250 ft | 448 kts | 356° |
| 2026-04-27 19:26 | 46.04267 | 37.38294 | 37250 ft | 449 kts | 355° |
| 2026-04-27 19:26 | 46.10515 | 37.38683 | 37243 ft | 449 kts | 356° |
| 2026-04-27 19:27 | 46.16758 | 37.39071 | 37241 ft | 449 kts | 355° |
| 2026-04-27 19:27 | 46.22959 | 37.39459 | 37237 ft | 448 kts | 355° |
| 2026-04-27 19:28 | 46.29196 | 37.39849 | 37240 ft | 448 kts | 355° |
| 2026-04-27 19:28 | 46.35432 | 37.40238 | 37232 ft | 448 kts | 355° |
| 2026-04-27 19:29 | 46.41665 | 37.40628 | 37234 ft | 449 kts | 355° |
| 2026-04-27 19:29 | 46.47900 | 37.41020 | 37228 ft | 449 kts | 355° |
| 2026-04-27 19:30 | 46.54142 | 37.41416 | 37230 ft | 449 kts | 355° |
| 2026-04-27 19:30 | 46.60377 | 37.41808 | 37225 ft | 449 kts | 355° |
| 2026-04-27 19:31 | 46.66620 | 37.42312 | 37221 ft | 452 kts | 360° |
| 2026-04-27 19:31 | 46.72884 | 37.43477 | 37219 ft | 454 kts | 1° |
| 2026-04-27 19:32 | 46.79138 | 37.44681 | 37213 ft | 454 kts | 1° |
| 2026-04-27 19:32 | 46.85401 | 37.45880 | 37210 ft | 454 kts | 0° |
| 2026-04-27 19:33 | 46.91668 | 37.47080 | 37211 ft | 454 kts | 0° |
| 2026-04-27 19:33 | 46.97883 | 37.48277 | 37206 ft | 453 kts | 0° |
| 2026-04-27 19:34 | 47.04136 | 37.49479 | 37201 ft | 454 kts | 0° |
| 2026-04-27 19:34 | 47.10397 | 37.50686 | 37200 ft | 454 kts | 0° |
| 2026-04-27 19:35 | 47.16653 | 37.51892 | 37200 ft | 453 kts | 0° |
| 2026-04-27 19:35 | 47.22904 | 37.53073 | 37193 ft | 453 kts | 0° |
| 2026-04-27 19:36 | 47.29157 | 37.54298 | 37182 ft | 454 kts | 0° |
| 2026-04-27 19:36 | 47.35420 | 37.55517 | 37192 ft | 454 kts | 0° |
| 2026-04-27 19:37 | 47.41692 | 37.56740 | 37188 ft | 455 kts | 0° |
| 2026-04-27 19:37 | 47.47963 | 37.57971 | 37188 ft | 455 kts | 0° |
| 2026-04-27 19:38 | 47.54234 | 37.59206 | 37181 ft | 456 kts | 360° |
| 2026-04-27 19:38 | 47.60509 | 37.60441 | 37160 ft | 454 kts | 360° |
| 2026-04-27 19:39 | 47.66766 | 37.61522 | 37140 ft | 452 kts | 358° |
| 2026-04-27 19:39 | 47.73026 | 37.62557 | 37123 ft | 452 kts | 359° |
| 2026-04-27 19:40 | 47.79288 | 37.63595 | 37121 ft | 453 kts | 358° |
| 2026-04-27 19:40 | 47.85558 | 37.64620 | 37119 ft | 453 kts | 358° |
| 2026-04-27 19:41 | 47.91828 | 37.65659 | 37107 ft | 454 kts | 358° |
| 2026-04-27 19:41 | 47.98110 | 37.66695 | 37110 ft | 454 kts | 358° |
| 2026-04-27 19:42 | 48.04343 | 37.67738 | 37102 ft | 453 kts | 358° |
| 2026-04-27 19:42 | 48.10617 | 37.69089 | 37100 ft | 458 kts | 2° |
| 2026-04-27 19:43 | 48.16882 | 37.70756 | 37097 ft | 458 kts | 2° |
| 2026-04-27 19:43 | 48.23155 | 37.72427 | 37092 ft | 458 kts | 2° |
| 2026-04-27 19:44 | 48.29423 | 37.74089 | 37085 ft | 457 kts | 2° |
| 2026-04-27 19:44 | 48.35698 | 37.75762 | 37081 ft | 458 kts | 2° |
| 2026-04-27 19:45 | 48.41966 | 37.77438 | 37080 ft | 458 kts | 2° |
| 2026-04-27 19:45 | 48.47181 | 37.78845 | 37074 ft | 457 kts | 2° |
| 2026-04-27 19:46 | 48.53452 | 37.80539 | 37072 ft | 457 kts | 2° |
| 2026-04-27 19:46 | 48.59713 | 37.82221 | 37061 ft | 457 kts | 2° |
| 2026-04-27 19:47 | 48.65981 | 37.83911 | 37061 ft | 458 kts | 2° |
| 2026-04-27 19:47 | 48.72255 | 37.85164 | 37051 ft | 454 kts | 359° |
| 2026-04-27 19:48 | 48.78539 | 37.86274 | 37050 ft | 454 kts | 359° |
| 2026-04-27 19:48 | 48.84822 | 37.87384 | 37040 ft | 454 kts | 359° |
| 2026-04-27 19:49 | 48.91092 | 37.88640 | 37031 ft | 458 kts | 3° |
| 2026-04-27 19:49 | 48.97361 | 37.90482 | 37029 ft | 459 kts | 4° |
| 2026-04-27 19:50 | 49.03633 | 37.92332 | 37021 ft | 459 kts | 4° |
| 2026-04-27 19:50 | 49.09907 | 37.94203 | 37015 ft | 459 kts | 4° |
| 2026-04-27 19:51 | 49.16200 | 37.96061 | 37012 ft | 460 kts | 3° |
| 2026-04-27 19:51 | 49.22448 | 37.97848 | 37003 ft | 461 kts | 3° |
| 2026-04-27 19:52 | 49.28746 | 37.99640 | 36999 ft | 460 kts | 3° |
| 2026-04-27 19:52 | 49.35054 | 38.01458 | 36991 ft | 463 kts | 3° |
| 2026-04-27 19:53 | 49.44558 | 38.04209 | 36980 ft | 463 kts | 3° |
| 2026-04-27 19:53 | 49.50895 | 38.06043 | 36980 ft | 462 kts | 4° |
| 2026-04-27 19:54 | 49.57225 | 38.07881 | 36972 ft | 463 kts | 4° |
| 2026-04-27 19:54 | 49.63554 | 38.09724 | 36968 ft | 463 kts | 4° |
| 2026-04-27 19:55 | 49.69890 | 38.11575 | 36961 ft | 463 kts | 4° |
| 2026-04-27 19:55 | 49.76216 | 38.13427 | 36959 ft | 462 kts | 4° |
| 2026-04-27 19:56 | 49.82543 | 38.15283 | 36953 ft | 462 kts | 4° |
| 2026-04-27 19:56 | 49.88867 | 38.17138 | 36950 ft | 462 kts | 4° |
| 2026-04-27 19:57 | 49.95189 | 38.19008 | 36945 ft | 463 kts | 4° |
| 2026-04-27 19:57 | 50.01516 | 38.20883 | 36942 ft | 463 kts | 4° |
| 2026-04-27 19:58 | 50.07816 | 38.21560 | 36939 ft | 446 kts | 345° |
| 2026-04-27 19:58 | 50.10796 | 38.20472 | 36935 ft | 434 kts | 333° |
| 2026-04-27 19:58 | 50.13570 | 38.18690 | 36937 ft | 430 kts | 329° |
| 2026-04-27 19:59 | 50.18984 | 38.14909 | 36929 ft | 430 kts | 329° |
| 2026-04-27 19:59 | 50.24464 | 38.11149 | 36931 ft | 431 kts | 330° |
| 2026-04-27 20:00 | 50.29952 | 38.07413 | 36919 ft | 430 kts | 330° |
| 2026-04-27 20:00 | 50.35436 | 38.03663 | 36917 ft | 429 kts | 330° |
| 2026-04-27 20:01 | 50.40921 | 37.99903 | 36926 ft | 431 kts | 330° |
| 2026-04-27 20:01 | 50.46400 | 37.96126 | 36925 ft | 429 kts | 330° |
| 2026-04-27 20:02 | 50.51879 | 37.92351 | 36918 ft | 430 kts | 330° |
| 2026-04-27 20:02 | 50.57360 | 37.88563 | 36919 ft | 432 kts | 330° |
| 2026-04-27 20:03 | 50.62835 | 37.84775 | 36917 ft | 430 kts | 330° |
| 2026-04-27 20:03 | 50.68319 | 37.80946 | 36924 ft | 431 kts | 330° |
| 2026-04-27 20:04 | 50.73801 | 37.77127 | 36913 ft | 431 kts | 330° |
| 2026-04-27 20:04 | 50.79272 | 37.73291 | 36903 ft | 430 kts | 330° |
| 2026-04-27 20:05 | 50.84757 | 37.69460 | 36902 ft | 431 kts | 330° |
| 2026-04-27 20:05 | 50.90244 | 37.65616 | 36906 ft | 431 kts | 330° |
| 2026-04-27 20:06 | 50.95726 | 37.61768 | 36900 ft | 432 kts | 330° |
| 2026-04-27 20:06 | 51.01180 | 37.57912 | 36892 ft | 433 kts | 330° |
| 2026-04-27 20:07 | 51.06675 | 37.54027 | 36899 ft | 432 kts | 330° |
| 2026-04-27 20:07 | 51.12211 | 37.50097 | 36896 ft | 432 kts | 330° |
| 2026-04-27 20:08 | 51.17674 | 37.46216 | 36895 ft | 434 kts | 331° |
| 2026-04-27 20:08 | 51.23184 | 37.42318 | 36893 ft | 433 kts | 331° |
| 2026-04-27 20:09 | 51.28697 | 37.38408 | 36890 ft | 433 kts | 331° |
| 2026-04-27 20:09 | 51.34208 | 37.34486 | 36891 ft | 435 kts | 331° |
| 2026-04-27 20:10 | 51.39727 | 37.30552 | 36890 ft | 435 kts | 331° |
| 2026-04-27 20:10 | 51.45244 | 37.26602 | 36886 ft | 434 kts | 331° |
| 2026-04-27 20:11 | 51.50742 | 37.22623 | 36883 ft | 435 kts | 331° |
| 2026-04-27 20:11 | 51.56249 | 37.18656 | 36888 ft | 434 kts | 331° |
| 2026-04-27 20:12 | 51.60896 | 37.15561 | 36886 ft | 438 kts | 339° |
| 2026-04-27 20:12 | 51.64971 | 37.14527 | 36890 ft | 450 kts | 352° |
| 2026-04-27 20:12 | 51.68096 | 37.14369 | 36884 ft | 448 kts | 353° |
| 2026-04-27 20:13 | 51.74341 | 37.14113 | 36879 ft | 449 kts | 353° |
| 2026-04-27 20:13 | 51.80583 | 37.13799 | 36875 ft | 449 kts | 353° |
| 2026-04-27 20:14 | 51.86828 | 37.13515 | 36861 ft | 449 kts | 353° |
| 2026-04-27 20:14 | 51.93076 | 37.13282 | 36846 ft | 449 kts | 353° |
| 2026-04-27 20:15 | 51.99332 | 37.12982 | 36836 ft | 449 kts | 353° |
| 2026-04-27 20:15 | 52.05578 | 37.12678 | 36832 ft | 450 kts | 354° |
| 2026-04-27 20:16 | 52.11804 | 37.12374 | 36826 ft | 450 kts | 354° |
| 2026-04-27 20:16 | 52.18066 | 37.12042 | 36819 ft | 451 kts | 354° |
| 2026-04-27 20:17 | 52.24339 | 37.11722 | 36821 ft | 450 kts | 354° |
| 2026-04-27 20:17 | 52.29587 | 37.11459 | 36813 ft | 451 kts | 354° |
| 2026-04-27 20:18 | 52.36870 | 37.11087 | 36814 ft | 451 kts | 354° |
| 2026-04-27 20:18 | 52.43076 | 37.10039 | 36805 ft | 447 kts | 347° |
| 2026-04-27 20:19 | 52.49223 | 37.08539 | 36800 ft | 447 kts | 348° |
| 2026-04-27 20:19 | 52.55373 | 37.07082 | 36791 ft | 447 kts | 348° |
| 2026-04-27 20:20 | 52.61532 | 37.05608 | 36785 ft | 447 kts | 348° |
| 2026-04-27 20:20 | 52.67685 | 37.04199 | 36780 ft | 447 kts | 347° |
| 2026-04-27 20:21 | 52.73834 | 37.02690 | 36771 ft | 446 kts | 348° |
| 2026-04-27 20:21 | 52.79983 | 37.01212 | 36765 ft | 447 kts | 348° |
| 2026-04-27 20:22 | 52.86126 | 36.99769 | 36748 ft | 446 kts | 348° |
| 2026-04-27 20:22 | 52.92290 | 36.98321 | 36739 ft | 447 kts | 348° |
| 2026-04-27 20:23 | 52.98399 | 36.96872 | 36729 ft | 447 kts | 348° |
| 2026-04-27 20:23 | 53.04597 | 36.95375 | 36715 ft | 447 kts | 348° |
| 2026-04-27 20:24 | 53.10709 | 36.93905 | 36704 ft | 447 kts | 348° |
| 2026-04-27 20:24 | 53.16878 | 36.92467 | 36699 ft | 447 kts | 348° |
| 2026-04-27 20:25 | 53.19949 | 36.91737 | 36568 ft | 442 kts | 348° |
| 2026-04-27 20:25 | 53.22971 | 36.91006 | 36242 ft | 436 kts | 348° |
| 2026-04-27 20:25 | 53.25960 | 36.90274 | 35970 ft | 433 kts | 348° |
| 2026-04-27 20:25 | 53.28939 | 36.89550 | 35708 ft | 432 kts | 348° |
| 2026-04-27 20:26 | 53.31909 | 36.88819 | 35455 ft | 431 kts | 348° |
| 2026-04-27 20:26 | 53.34868 | 36.88061 | 35200 ft | 430 kts | 348° |
| 2026-04-27 20:26 | 53.37827 | 36.87334 | 34951 ft | 430 kts | 348° |
| 2026-04-27 20:26 | 53.40781 | 36.86618 | 34699 ft | 428 kts | 348° |
| 2026-04-27 20:27 | 53.43722 | 36.85925 | 34446 ft | 426 kts | 348° |
| 2026-04-27 20:27 | 53.46648 | 36.85207 | 34200 ft | 423 kts | 348° |
| 2026-04-27 20:27 | 53.49555 | 36.84500 | 33955 ft | 421 kts | 348° |
| 2026-04-27 20:27 | 53.52446 | 36.83806 | 33701 ft | 419 kts | 348° |
| 2026-04-27 20:28 | 53.55317 | 36.83097 | 33394 ft | 415 kts | 348° |
| 2026-04-27 20:28 | 53.58158 | 36.82390 | 32950 ft | 411 kts | 348° |
| 2026-04-27 20:28 | 53.60974 | 36.81685 | 32455 ft | 408 kts | 348° |
| 2026-04-27 20:28 | 53.62827 | 36.81221 | 32112 ft | 406 kts | 348° |
| 2026-04-27 20:29 | 53.66554 | 36.80300 | 31393 ft | 404 kts | 348° |
| 2026-04-27 20:29 | 53.69331 | 36.79618 | 30849 ft | 402 kts | 348° |
| 2026-04-27 20:29 | 53.72089 | 36.78935 | 30327 ft | 399 kts | 348° |
| 2026-04-27 20:29 | 53.74827 | 36.78250 | 29823 ft | 396 kts | 348° |
| 2026-04-27 20:30 | 53.77538 | 36.77571 | 29302 ft | 393 kts | 348° |
| 2026-04-27 20:30 | 53.80241 | 36.76902 | 28769 ft | 391 kts | 348° |
| 2026-04-27 20:30 | 53.82914 | 36.76231 | 28256 ft | 386 kts | 348° |
| 2026-04-27 20:30 | 53.85554 | 36.75570 | 27757 ft | 381 kts | 349° |
| 2026-04-27 20:31 | 53.88159 | 36.74920 | 27271 ft | 375 kts | 349° |
| 2026-04-27 20:31 | 53.90722 | 36.74278 | 26788 ft | 370 kts | 349° |
| 2026-04-27 20:31 | 53.93253 | 36.73641 | 26299 ft | 365 kts | 349° |
| 2026-04-27 20:31 | 53.95749 | 36.73021 | 25822 ft | 361 kts | 349° |
| 2026-04-27 20:32 | 53.98216 | 36.72421 | 25343 ft | 356 kts | 351° |
| 2026-04-27 20:32 | 54.00675 | 36.72360 | 24893 ft | 353 kts | 4° |
| 2026-04-27 20:32 | 54.03041 | 36.73370 | 24453 ft | 351 kts | 19° |
| 2026-04-27 20:32 | 54.05230 | 36.75186 | 23997 ft | 348 kts | 24° |
| 2026-04-27 20:33 | 54.07351 | 36.77131 | 23534 ft | 344 kts | 25° |
| 2026-04-27 20:33 | 54.09445 | 36.79053 | 23094 ft | 340 kts | 24° |
| 2026-04-27 20:33 | 54.10821 | 36.80298 | 22801 ft | 337 kts | 24° |
| 2026-04-27 20:33 | 54.13565 | 36.82765 | 22225 ft | 331 kts | 23° |
| 2026-04-27 20:34 | 54.14911 | 36.83974 | 21949 ft | 329 kts | 23° |
| 2026-04-27 20:34 | 54.16931 | 36.85778 | 21518 ft | 327 kts | 23° |
| 2026-04-27 20:34 | 54.18945 | 36.87571 | 21081 ft | 326 kts | 22° |
| 2026-04-27 20:34 | 54.20950 | 36.89355 | 20635 ft | 325 kts | 22° |
| 2026-04-27 20:35 | 54.23591 | 36.91732 | 20066 ft | 323 kts | 22° |
| 2026-04-27 20:35 | 54.24930 | 36.92937 | 19788 ft | 322 kts | 22° |
| 2026-04-27 20:35 | 54.27547 | 36.95277 | 19243 ft | 319 kts | 22° |
| 2026-04-27 20:35 | 54.28872 | 36.96465 | 18962 ft | 318 kts | 22° |
| 2026-04-27 20:36 | 54.30829 | 36.98224 | 18559 ft | 317 kts | 21° |
| 2026-04-27 20:36 | 54.32772 | 36.99974 | 18164 ft | 315 kts | 21° |
| 2026-04-27 20:36 | 54.34703 | 37.01722 | 17782 ft | 313 kts | 21° |
| 2026-04-27 20:36 | 54.36624 | 37.03460 | 17393 ft | 311 kts | 21° |
| 2026-04-27 20:37 | 54.38534 | 37.05193 | 17014 ft | 310 kts | 21° |
| 2026-04-27 20:37 | 54.40438 | 37.06919 | 16632 ft | 309 kts | 21° |
| 2026-04-27 20:37 | 54.42336 | 37.08641 | 16259 ft | 308 kts | 21° |
| 2026-04-27 20:37 | 54.44233 | 37.10359 | 15895 ft | 308 kts | 21° |
| 2026-04-27 20:38 | 54.46127 | 37.12079 | 15549 ft | 308 kts | 21° |
| 2026-04-27 20:38 | 54.48028 | 37.13810 | 15195 ft | 309 kts | 21° |
| 2026-04-27 20:38 | 54.49926 | 37.15545 | 14837 ft | 309 kts | 21° |
| 2026-04-27 20:38 | 54.51828 | 37.17288 | 14476 ft | 310 kts | 21° |
| 2026-04-27 20:39 | 54.53738 | 37.19033 | 14098 ft | 313 kts | 21° |
| 2026-04-27 20:39 | 54.55681 | 37.20805 | 13733 ft | 317 kts | 21° |
| 2026-04-27 20:39 | 54.57612 | 37.22585 | 13331 ft | 314 kts | 21° |
| 2026-04-27 20:39 | 54.59535 | 37.24346 | 12943 ft | 311 kts | 21° |
| 2026-04-27 20:40 | 54.61445 | 37.26025 | 12565 ft | 303 kts | 16° |
| 2026-04-27 20:40 | 54.63388 | 37.27228 | 12260 ft | 292 kts | 10° |
| 2026-04-27 20:40 | 54.65304 | 37.28260 | 11984 ft | 285 kts | 9° |
| 2026-04-27 20:40 | 54.67182 | 37.29262 | 11712 ft | 281 kts | 9° |
| 2026-04-27 20:41 | 54.69050 | 37.30263 | 11455 ft | 279 kts | 9° |
| 2026-04-27 20:41 | 54.70902 | 37.31268 | 11214 ft | 278 kts | 9° |
| 2026-04-27 20:41 | 54.72745 | 37.32263 | 10966 ft | 275 kts | 9° |
| 2026-04-27 20:41 | 54.74569 | 37.33257 | 10695 ft | 275 kts | 10° |
| 2026-04-27 20:42 | 54.76390 | 37.34006 | 10381 ft | 262 kts | 358° |
| 2026-04-27 20:42 | 54.78174 | 37.34152 | 10114 ft | 261 kts | 353° |
| 2026-04-27 20:42 | 54.79999 | 37.34222 | 9864 ft | 259 kts | 353° |
| 2026-04-27 20:42 | 54.81774 | 37.34284 | 9645 ft | 257 kts | 354° |
| 2026-04-27 20:43 | 54.83551 | 37.34152 | 9411 ft | 247 kts | 338° |
| 2026-04-27 20:43 | 54.84938 | 37.32613 | 9247 ft | 239 kts | 310° |
| 2026-04-27 20:43 | 54.86113 | 37.30601 | 9121 ft | 239 kts | 327° |
| 2026-04-27 20:43 | 54.87738 | 37.29935 | 8993 ft | 252 kts | 358° |
| 2026-04-27 20:44 | 54.89485 | 37.30678 | 8978 ft | 260 kts | 8° |
| 2026-04-27 20:44 | 54.91218 | 37.31572 | 8974 ft | 260 kts | 7° |
| 2026-04-27 20:44 | 54.92941 | 37.32310 | 8975 ft | 257 kts | 4° |
| 2026-04-27 20:44 | 54.94690 | 37.32950 | 8975 ft | 257 kts | 2° |
| 2026-04-27 20:45 | 54.96442 | 37.33527 | 8970 ft | 255 kts | 2° |
| 2026-04-27 20:45 | 54.98190 | 37.34061 | 8970 ft | 255 kts | 1° |
| 2026-04-27 20:45 | 54.99937 | 37.34567 | 8956 ft | 255 kts | 1° |
| 2026-04-27 20:45 | 55.01693 | 37.35059 | 8959 ft | 255 kts | 1° |
| 2026-04-27 20:46 | 55.03445 | 37.35428 | 8911 ft | 250 kts | 356° |
| 2026-04-27 20:46 | 55.05180 | 37.35544 | 8396 ft | 251 kts | 354° |
| 2026-04-27 20:46 | 55.06927 | 37.35632 | 7925 ft | 251 kts | 354° |
| 2026-04-27 20:46 | 55.08650 | 37.35722 | 7648 ft | 244 kts | 353° |
| 2026-04-27 20:47 | 55.10296 | 37.35820 | 7573 ft | 229 kts | 353° |
| 2026-04-27 20:47 | 55.11827 | 37.35917 | 7625 ft | 214 kts | 352° |
| 2026-04-27 20:47 | 55.13306 | 37.36001 | 7607 ft | 212 kts | 352° |
| 2026-04-27 20:47 | 55.14780 | 37.36100 | 7496 ft | 211 kts | 352° |
| 2026-04-27 20:48 | 55.16253 | 37.36194 | 7391 ft | 211 kts | 352° |
| 2026-04-27 20:48 | 55.17723 | 37.36280 | 7256 ft | 212 kts | 352° |
| 2026-04-27 20:48 | 55.19188 | 37.36365 | 7109 ft | 210 kts | 352° |
| 2026-04-27 20:48 | 55.20655 | 37.36450 | 6958 ft | 211 kts | 352° |
| 2026-04-27 20:49 | 55.22118 | 37.36534 | 6800 ft | 210 kts | 351° |
| 2026-04-27 20:49 | 55.23580 | 37.36626 | 6642 ft | 210 kts | 352° |
| 2026-04-27 20:49 | 55.25043 | 37.36718 | 6467 ft | 209 kts | 352° |
| 2026-04-27 20:49 | 55.26497 | 37.36807 | 6314 ft | 209 kts | 351° |
| 2026-04-27 20:50 | 55.27951 | 37.36901 | 6154 ft | 209 kts | 351° |
| 2026-04-27 20:50 | 55.29403 | 37.36997 | 5996 ft | 209 kts | 351° |
| 2026-04-27 20:50 | 55.30855 | 37.37087 | 5835 ft | 210 kts | 352° |
| 2026-04-27 20:50 | 55.32327 | 37.37509 | 5671 ft | 219 kts | 3° |
| 2026-04-27 20:51 | 55.33803 | 37.38244 | 5509 ft | 222 kts | 5° |
| 2026-04-27 20:51 | 55.35286 | 37.38992 | 5344 ft | 222 kts | 4° |
| 2026-04-27 20:51 | 55.36770 | 37.39736 | 5165 ft | 222 kts | 5° |
| 2026-04-27 20:51 | 55.38256 | 37.40475 | 4993 ft | 221 kts | 5° |
| 2026-04-27 20:52 | 55.39736 | 37.41193 | 4828 ft | 221 kts | 4° |
| 2026-04-27 20:52 | 55.41226 | 37.41901 | 4667 ft | 222 kts | 4° |
| 2026-04-27 20:52 | 55.42719 | 37.42618 | 4495 ft | 223 kts | 5° |
| 2026-04-27 20:52 | 55.44215 | 37.43341 | 4323 ft | 223 kts | 5° |
| 2026-04-27 20:53 | 55.45688 | 37.44050 | 4152 ft | 223 kts | 5° |
| 2026-04-27 20:53 | 55.47202 | 37.44784 | 3977 ft | 224 kts | 6° |
| 2026-04-27 20:53 | 55.48710 | 37.45506 | 3869 ft | 226 kts | 6° |
| 2026-04-27 20:53 | 55.50222 | 37.46233 | 3869 ft | 225 kts | 6° |
| 2026-04-27 20:54 | 55.53233 | 37.47684 | 3333 ft | 223 kts | 6° |
| 2026-04-27 20:54 | 55.54734 | 37.48406 | 2989 ft | 225 kts | 7° |
| 2026-04-27 20:54 | 55.56179 | 37.49116 | 2872 ft | 208 kts | 7° |
| 2026-04-27 20:55 | 55.57568 | 37.49800 | 2867 ft | 204 kts | 6° |
| 2026-04-27 20:55 | 55.58926 | 37.50298 | 2873 ft | 197 kts | 351° |
| 2026-04-27 20:55 | 55.60196 | 37.49752 | 2891 ft | 185 kts | 329° |
| 2026-04-27 20:55 | 55.61386 | 37.48812 | 2905 ft | 182 kts | 329° |
| 2026-04-27 20:56 | 55.62420 | 37.47945 | 2918 ft | 150 kts | 318° |
| 2026-04-27 20:56 | 55.63000 | 37.46670 | 2921 ft | 123 kts | 291° |
| 2026-04-27 20:56 | 55.63231 | 37.45276 | 2908 ft | 118 kts | 271° |
| 2026-04-27 20:56 | 55.63045 | 37.43817 | 2903 ft | 121 kts | 258° |
| 2026-04-27 20:57 | 55.62777 | 37.42399 | 2896 ft | 122 kts | 256° |
| 2026-04-27 20:57 | 55.62483 | 37.41010 | 2713 ft | 122 kts | 254° |
| 2026-04-27 20:57 | 55.62180 | 37.39599 | 2241 ft | 121 kts | 254° |
| 2026-04-27 20:57 | 55.61869 | 37.38209 | 1812 ft | 122 kts | 252° |
| 2026-04-27 20:58 | 55.61550 | 37.36812 | 1637 ft | 122 kts | 253° |
| 2026-04-27 20:58 | 55.61234 | 37.35403 | 1479 ft | 123 kts | 254° |
| 2026-04-27 20:58 | 55.60916 | 37.33988 | 1317 ft | 124 kts | 253° |
| 2026-04-27 20:58 | 55.60597 | 37.32564 | 1155 ft | 125 kts | 253° |
| 2026-04-27 20:59 | 55.60276 | 37.31148 | 993 ft | 125 kts | 256° |
| 2026-04-27 20:59 | 55.59952 | 37.29714 | 832 ft | 123 kts | 257° |
| 2026-04-27 20:59 | 55.59649 | 37.28253 | 741 ft | 138 kts | 250° |
| 2026-04-27 20:59 | 55.59487 | 37.26601 | 1538 ft | 136 kts | 259° |
| 2026-04-27 21:00 | 55.59006 | 37.25248 | 2168 ft | 124 kts | 239° |
| 2026-04-27 21:00 | 55.58634 | 37.23846 | 2278 ft | 135 kts | 253° |
| 2026-04-27 21:00 | 55.58265 | 37.22176 | 2667 ft | 156 kts | 253° |
| 2026-04-27 21:00 | 55.57838 | 37.20271 | 3123 ft | 179 kts | 253° |
| 2026-04-27 21:01 | 55.57066 | 37.18345 | 3587 ft | 210 kts | 225° |
| 2026-04-27 21:01 | 55.55673 | 37.17286 | 4107 ft | 230 kts | 200° |
| 2026-04-27 21:01 | 55.54019 | 37.17428 | 3930 ft | 250 kts | 170° |
| 2026-04-27 21:01 | 55.52420 | 37.18570 | 3888 ft | 252 kts | 162° |
| 2026-04-27 21:02 | 55.50830 | 37.19870 | 3890 ft | 252 kts | 161° |
| 2026-04-27 21:02 | 55.49399 | 37.21711 | 3890 ft | 262 kts | 133° |
| 2026-04-27 21:02 | 55.48540 | 37.24556 | 3900 ft | 266 kts | 104° |
| 2026-04-27 21:02 | 55.48437 | 37.27764 | 3907 ft | 261 kts | 77° |
| 2026-04-27 21:03 | 55.48787 | 37.30887 | 3822 ft | 256 kts | 72° |
| 2026-04-27 21:03 | 55.49309 | 37.33781 | 3659 ft | 240 kts | 63° |
| 2026-04-27 21:03 | 55.49926 | 37.36483 | 3460 ft | 229 kts | 62° |
| 2026-04-27 21:03 | 55.50512 | 37.39007 | 3271 ft | 225 kts | 62° |
| 2026-04-27 21:04 | 55.51103 | 37.41544 | 3087 ft | 218 kts | 62° |
| 2026-04-27 21:04 | 55.51779 | 37.43878 | 2898 ft | 211 kts | 53° |
| 2026-04-27 21:04 | 55.52540 | 37.46062 | 2796 ft | 208 kts | 52° |
| 2026-04-27 21:04 | 55.53327 | 37.48251 | 2671 ft | 217 kts | 51° |
| 2026-04-27 21:05 | 55.54119 | 37.50437 | 2406 ft | 206 kts | 52° |
| 2026-04-27 21:05 | 55.54879 | 37.52540 | 2138 ft | 194 kts | 52° |
| 2026-04-27 21:05 | 55.55669 | 37.54374 | 1905 ft | 184 kts | 38° |
| 2026-04-27 21:05 | 55.56703 | 37.55578 | 1858 ft | 166 kts | 18° |
| 2026-04-27 21:06 | 55.57748 | 37.56117 | 1864 ft | 152 kts | 1° |
| 2026-04-27 21:06 | 55.58736 | 37.55909 | 1878 ft | 138 kts | 326° |
| 2026-04-27 21:06 | 55.59402 | 37.54885 | 1902 ft | 123 kts | 307° |
| 2026-04-27 21:06 | 55.60022 | 37.53764 | 1928 ft | 129 kts | 310° |
| 2026-04-27 21:07 | 55.60651 | 37.52661 | 1909 ft | 130 kts | 310° |
| 2026-04-27 21:07 | 55.61283 | 37.51521 | 1904 ft | 129 kts | 310° |
| 2026-04-27 21:07 | 55.61911 | 37.50395 | 1900 ft | 129 kts | 310° |
| 2026-04-27 21:07 | 55.62546 | 37.49264 | 1908 ft | 130 kts | 310° |
| 2026-04-27 21:08 | 55.63176 | 37.48118 | 1898 ft | 129 kts | 308° |
| 2026-04-27 21:08 | 55.63589 | 37.46776 | 1879 ft | 127 kts | 275° |
| 2026-04-27 21:08 | 55.63390 | 37.45218 | 1889 ft | 129 kts | 256° |
| 2026-04-27 21:08 | 55.63088 | 37.43733 | 1907 ft | 129 kts | 253° |
| 2026-04-27 21:09 | 55.62765 | 37.42231 | 1905 ft | 129 kts | 253° |
| 2026-04-27 21:09 | 55.62437 | 37.40761 | 1900 ft | 131 kts | 253° |
| 2026-04-27 21:09 | 55.62101 | 37.39262 | 1890 ft | 129 kts | 253° |
| 2026-04-27 21:09 | 55.61770 | 37.37788 | 1746 ft | 129 kts | 252° |
| 2026-04-27 21:10 | 55.61441 | 37.36317 | 1590 ft | 128 kts | 252° |
| 2026-04-27 21:10 | 55.61108 | 37.34836 | 1414 ft | 130 kts | 253° |
| 2026-04-27 21:10 | 55.60781 | 37.33382 | 1240 ft | 129 kts | 253° |
| 2026-04-27 21:10 | 55.60449 | 37.31895 | 1069 ft | 130 kts | 252° |
| 2026-04-27 21:11 | 55.60107 | 37.30396 | 905 ft | 131 kts | 253° |
| 2026-04-27 21:11 | 55.59763 | 37.28904 | 731 ft | 131 kts | 255° |
| 2026-04-27 21:11 | 55.59479 | 37.27592 | 680 ft | 85 kts | 252° |
| 2026-04-27 21:11 | 55.59358 | 37.27045 | 674 ft | 30 kts | 247° |
| 2026-04-27 21:12 | 55.59279 | 37.26694 | 674 ft | 32 kts | 248° |
| 2026-04-27 21:12 | 55.59198 | 37.26323 | 673 ft | 33 kts | 249° |
| 2026-04-27 21:12 | 55.59112 | 37.25937 | 674 ft | 35 kts | 248° |
| 2026-04-27 21:12 | 55.59023 | 37.25534 | 670 ft | 36 kts | 251° |
| 2026-04-27 21:13 | 55.59024 | 37.25270 | 665 ft | 19 kts | 280° |
| 2026-04-27 21:13 | 55.59050 | 37.25083 | 664 ft | 8 kts | 307° |
| 2026-04-27 21:13 | 55.59106 | 37.25035 | 664 ft | 10 kts | 1° |
| 2026-04-27 21:13 | 55.59160 | 37.25130 | 664 ft | 13 kts | 69° |
| 2026-04-27 21:14 | 55.59194 | 37.25296 | 668 ft | 16 kts | 68° |
| 2026-04-27 21:14 | 55.59238 | 37.25492 | 671 ft | 18 kts | 68° |
| 2026-04-27 21:14 | 55.59288 | 37.25716 | 674 ft | 21 kts | 68° |
| 2026-04-27 21:14 | 55.59342 | 37.25961 | 674 ft | 22 kts | 68° |
| 2026-04-27 21:15 | 55.59401 | 37.26225 | 672 ft | 24 kts | 68° |
| 2026-04-27 21:15 | 55.59464 | 37.26507 | 674 ft | 23 kts | 68° |
| 2026-04-27 21:15 | 55.59518 | 37.26728 | 674 ft | 20 kts | 65° |
| 2026-04-27 21:15 | 55.59596 | 37.26937 | 674 ft | 21 kts | 43° |
| 2026-04-27 21:16 | 55.59705 | 37.27129 | 675 ft | 23 kts | 49° |
| 2026-04-27 21:16 | 55.59819 | 37.27352 | 680 ft | 26 kts | 47° |
| 2026-04-27 21:16 | 55.59914 | 37.27528 | 684 ft | 12 kts | 46° |
| 2026-04-27 21:16 | 55.59952 | 37.27603 | 685 ft | 13 kts | 59° |
| 2026-04-27 21:17 | 55.60032 | 37.27759 | 685 ft | 12 kts | 33° |
| 2026-04-27 21:17 | 55.60079 | 37.27818 | 685 ft | 13 kts | 47° |
| 2026-04-27 21:17 | 55.60126 | 37.27979 | 685 ft | 10 kts | 58° |
| 2026-04-27 21:17 | 55.60153 | 37.28022 | 685 ft | 1 kts | 34° |
| 2026-04-27 21:18 | 55.60161 | 37.28030 | 685 ft | 3 kts | 33° |
| 2026-04-27 21:18 | 55.60181 | 37.28054 | 685 ft | 3 kts | 36° |